createdAt,value
2019-03-24T00:00:05.819Z,1026.14
2019-03-24T00:01:05.791Z,1026.14
2019-03-24T00:02:05.773Z,1026.18
2019-03-24T00:03:05.724Z,1026.16
2019-03-24T00:04:05.689Z,1026.15
2019-03-24T00:05:05.663Z,1026.17
2019-03-24T00:06:05.626Z,1026.19
2019-03-24T00:07:05.613Z,1026.19
2019-03-24T00:08:05.567Z,1026.19
2019-03-24T00:09:05.531Z,1026.18
2019-03-24T00:10:05.496Z,1026.18
2019-03-24T00:11:05.474Z,1026.15
2019-03-24T00:12:05.462Z,1026.20
2019-03-24T00:13:05.420Z,1026.17
2019-03-24T00:14:05.363Z,1026.08
2019-03-24T00:15:05.329Z,1026.16
2019-03-24T00:16:05.313Z,1026.15
2019-03-24T00:17:05.286Z,1026.13
2019-03-24T00:18:05.228Z,1026.14
2019-03-24T00:19:05.196Z,1026.13
2019-03-24T00:20:05.178Z,1026.15
2019-03-24T00:21:05.141Z,1026.15
2019-03-24T00:22:05.133Z,1026.11
2019-03-24T00:23:05.065Z,1026.11
2019-03-24T00:24:05.046Z,1026.16
2019-03-24T00:25:05.000Z,1026.18
2019-03-24T00:26:04.977Z,1026.17
2019-03-24T00:27:04.975Z,1026.18
2019-03-24T00:28:04.900Z,1026.14
2019-03-24T00:29:04.880Z,1026.19
2019-03-24T00:30:04.835Z,1026.20
2019-03-24T00:31:04.800Z,1026.21
2019-03-24T00:32:04.781Z,1026.21
2019-03-24T00:33:04.767Z,1026.20
2019-03-24T00:34:04.714Z,1026.24
2019-03-24T00:35:04.671Z,1026.20
2019-03-24T00:36:04.637Z,1026.24
2019-03-24T00:37:04.604Z,1026.20
2019-03-24T00:38:04.589Z,1026.22
2019-03-24T00:39:04.542Z,1026.17
2019-03-24T00:40:04.502Z,1026.22
2019-03-24T00:41:04.477Z,1026.20
2019-03-24T00:42:04.445Z,1026.21
2019-03-24T00:43:04.429Z,1026.21
2019-03-24T00:44:04.373Z,1026.22
2019-03-24T00:45:04.338Z,1026.22
2019-03-24T00:46:04.303Z,1026.24
2019-03-24T00:47:04.275Z,1026.25
2019-03-24T00:48:04.263Z,1026.24
2019-03-24T00:49:04.211Z,1026.21
2019-03-24T00:50:04.174Z,1026.22
2019-03-24T00:51:04.144Z,1026.20
2019-03-24T00:52:04.109Z,1026.23
2019-03-24T00:53:04.108Z,1026.19
2019-03-24T00:54:04.041Z,1026.17
2019-03-24T00:55:04.006Z,1026.18
2019-03-24T00:56:03.974Z,1026.18
2019-03-24T00:57:03.940Z,1026.18
2019-03-24T00:58:03.941Z,1026.18
2019-03-24T00:59:03.871Z,1026.13
2019-03-24T01:00:03.843Z,1026.15
2019-03-24T01:01:03.807Z,1026.13
2019-03-24T01:02:03.773Z,1026.15
2019-03-24T01:03:03.766Z,1026.18
2019-03-24T01:04:03.733Z,1026.09
2019-03-24T01:05:03.674Z,1026.12
2019-03-24T01:06:03.641Z,1026.10
2019-03-24T01:07:03.611Z,1026.09
2019-03-24T01:08:03.602Z,1026.07
2019-03-24T01:09:03.543Z,1026.09
2019-03-24T01:10:03.510Z,1026.08
2019-03-24T01:11:03.473Z,1026.11
2019-03-24T01:12:03.446Z,1026.07
2019-03-24T01:13:03.432Z,1026.08
2019-03-24T01:14:03.376Z,1026.02
2019-03-24T01:15:03.344Z,1026.04
2019-03-24T01:16:03.307Z,1026.02
2019-03-24T01:17:03.274Z,1026.05
2019-03-24T01:18:03.263Z,1026.01
2019-03-24T01:19:03.206Z,1026.02
2019-03-24T01:20:03.176Z,1026.01
2019-03-24T01:21:03.143Z,1026.04
2019-03-24T01:22:03.103Z,1026.01
2019-03-24T01:23:03.096Z,1026.05
2019-03-24T01:24:03.064Z,1026.05
2019-03-24T01:25:03.006Z,1025.97
2019-03-24T01:26:02.981Z,1026.00
2019-03-24T01:27:02.941Z,1025.98
2019-03-24T01:28:02.954Z,1025.98
2019-03-24T01:29:02.875Z,1025.96
2019-03-24T01:30:02.879Z,1025.97
2019-03-24T01:31:02.810Z,1025.95
2019-03-24T01:32:02.771Z,1025.93
2019-03-24T01:33:02.735Z,1025.91
2019-03-24T01:34:02.726Z,1025.94
2019-03-24T01:35:02.667Z,1025.92
2019-03-24T01:36:02.641Z,1025.90
2019-03-24T01:37:02.602Z,1025.91
2019-03-24T01:38:02.597Z,1025.91
2019-03-24T01:39:02.561Z,1025.95
2019-03-24T01:40:02.520Z,1025.93
2019-03-24T01:41:02.467Z,1025.93
2019-03-24T01:42:02.439Z,1025.95
2019-03-24T01:43:02.430Z,1025.90
2019-03-24T01:44:02.393Z,1025.88
2019-03-24T01:45:02.331Z,1025.90
2019-03-24T01:46:02.301Z,1025.90
2019-03-24T01:47:02.273Z,1025.88
2019-03-24T01:48:02.240Z,1025.88
2019-03-24T01:49:02.221Z,1025.89
2019-03-24T01:50:02.161Z,1025.88
2019-03-24T01:51:02.135Z,1025.88
2019-03-24T01:52:02.117Z,1025.84
2019-03-24T01:53:02.064Z,1025.88
2019-03-24T01:54:02.085Z,1025.86
2019-03-24T01:55:02.001Z,1025.86
2019-03-24T01:56:02.114Z,1025.87
2019-03-24T01:57:01.938Z,1025.87
2019-03-24T01:58:01.998Z,1025.87
2019-03-24T01:59:01.889Z,1025.90
2019-03-24T02:00:01.832Z,1025.88
2019-03-24T02:01:01.803Z,1025.85
2019-03-24T02:02:01.769Z,1025.82
2019-03-24T02:03:01.725Z,1025.81
2019-03-24T02:04:01.722Z,1025.81
2019-03-24T02:05:01.662Z,1025.80
2019-03-24T02:06:01.628Z,1025.82
2019-03-24T02:07:01.593Z,1025.77
2019-03-24T02:08:01.558Z,1025.74
2019-03-24T02:09:01.559Z,1025.79
2019-03-24T02:10:01.494Z,1025.77
2019-03-24T02:11:01.466Z,1025.74
2019-03-24T02:12:01.431Z,1025.80
2019-03-24T02:13:01.393Z,1025.77
2019-03-24T02:14:01.399Z,1025.80
2019-03-24T02:15:01.322Z,1025.79
2019-03-24T02:16:09.045Z,1025.77
2019-03-24T02:17:01.282Z,1025.80
2019-03-24T02:18:01.223Z,1025.81
2019-03-24T02:19:01.219Z,1025.82
2019-03-24T02:20:01.156Z,1025.78
2019-03-24T02:21:01.120Z,1025.76
2019-03-24T02:22:01.092Z,1025.73
2019-03-24T02:23:01.062Z,1025.71
2019-03-24T02:24:01.088Z,1025.72
2019-03-24T02:25:00.983Z,1025.69
2019-03-24T02:26:00.964Z,1025.66
2019-03-24T02:27:00.917Z,1025.71
2019-03-24T02:28:00.883Z,1025.65
2019-03-24T02:29:00.877Z,1025.66
2019-03-24T02:30:00.818Z,1025.73
2019-03-24T02:31:00.780Z,1025.69
2019-03-24T02:32:00.750Z,1025.75
2019-03-24T02:33:00.714Z,1025.69
2019-03-24T02:34:00.685Z,1025.68
2019-03-24T02:35:00.673Z,1025.70
2019-03-24T02:36:00.624Z,1025.64
2019-03-24T02:37:00.580Z,1025.69
2019-03-24T02:38:00.548Z,1025.68
2019-03-24T02:39:00.518Z,1025.68
2019-03-24T02:40:00.514Z,1025.63
2019-03-24T02:41:00.456Z,1025.62
2019-03-24T02:42:00.424Z,1025.63
2019-03-24T02:43:00.373Z,1025.63
2019-03-24T02:44:00.340Z,1025.64
2019-03-24T02:45:00.456Z,1025.64
2019-03-24T02:46:00.272Z,1025.64
2019-03-24T02:47:00.252Z,1025.60
2019-03-24T02:48:00.221Z,1025.59
2019-03-24T02:49:00.179Z,1025.60
2019-03-24T02:50:00.494Z,1025.59
2019-03-24T02:51:00.098Z,1025.59
2019-03-24T02:52:00.072Z,1025.59
2019-03-24T02:53:00.029Z,1025.52
2019-03-24T02:54:00.003Z,1025.56
2019-03-24T02:54:59.985Z,1025.52
2019-03-24T02:55:59.938Z,1025.54
2019-03-24T02:56:59.953Z,1025.53
2019-03-24T02:57:59.855Z,1025.51
2019-03-24T02:58:59.831Z,1025.53
2019-03-24T02:59:59.814Z,1025.49
2019-03-24T03:00:59.757Z,1025.47
2019-03-24T03:01:59.724Z,1025.46
2019-03-24T03:02:59.688Z,1025.45
2019-03-24T03:03:59.651Z,1025.48
2019-03-24T03:04:59.643Z,1025.48
2019-03-24T03:05:59.597Z,1025.49
2019-03-24T03:06:59.560Z,1025.48
2019-03-24T03:07:59.508Z,1025.47
2019-03-24T03:08:59.489Z,1025.47
2019-03-24T03:09:59.484Z,1025.48
2019-03-24T03:10:59.409Z,1025.48
2019-03-24T03:11:59.406Z,1025.51
2019-03-24T03:12:59.334Z,1025.46
2019-03-24T03:13:59.303Z,1025.45
2019-03-24T03:14:59.298Z,1025.44
2019-03-24T03:15:59.233Z,1025.44
2019-03-24T03:16:59.203Z,1025.41
2019-03-24T03:17:59.164Z,1025.43
2019-03-24T03:18:59.130Z,1025.43
2019-03-24T03:19:59.119Z,1025.43
2019-03-24T03:20:59.058Z,1025.41
2019-03-24T03:21:59.099Z,1025.39
2019-03-24T03:22:58.999Z,1025.35
2019-03-24T03:23:58.960Z,1025.39
2019-03-24T03:24:58.951Z,1025.38
2019-03-24T03:25:58.931Z,1025.40
2019-03-24T03:26:58.850Z,1025.39
2019-03-24T03:27:58.817Z,1025.42
2019-03-24T03:28:58.778Z,1025.38
2019-03-24T03:29:58.781Z,1025.43
2019-03-24T03:30:58.713Z,1025.39
2019-03-24T03:31:58.698Z,1025.36
2019-03-24T03:32:58.644Z,1025.43
2019-03-24T03:33:58.610Z,1025.39
2019-03-24T03:34:58.603Z,1025.39
2019-03-24T03:35:58.546Z,1025.37
2019-03-24T03:36:58.512Z,1025.34
2019-03-24T03:37:58.479Z,1025.35
2019-03-24T03:38:58.436Z,1025.37
2019-03-24T03:39:58.641Z,1025.36
2019-03-24T03:40:58.392Z,1025.35
2019-03-24T03:41:58.326Z,1025.41
2019-03-24T03:42:58.296Z,1025.40
2019-03-24T03:43:58.264Z,1025.44
2019-03-24T03:44:58.231Z,1025.47
2019-03-24T03:45:58.215Z,1025.43
2019-03-24T03:46:58.155Z,1025.43
2019-03-24T03:47:58.128Z,1025.38
2019-03-24T03:48:58.112Z,1025.41
2019-03-24T03:49:58.052Z,1025.40
2019-03-24T03:50:58.046Z,1025.41
2019-03-24T03:51:57.981Z,1025.41
2019-03-24T03:52:57.948Z,1025.38
2019-03-24T03:53:59.240Z,1025.41
2019-03-24T03:54:57.899Z,1025.42
2019-03-24T03:55:57.861Z,1025.43
2019-03-24T03:56:57.814Z,1025.42
2019-03-24T03:57:57.766Z,1025.39
2019-03-24T03:58:57.743Z,1025.42
2019-03-24T03:59:57.701Z,1025.38
2019-03-24T04:00:57.688Z,1025.35
2019-03-24T04:01:57.632Z,1025.31
2019-03-24T04:02:57.601Z,1025.35
2019-03-24T04:03:57.586Z,1025.30
2019-03-24T04:04:57.529Z,1025.32
2019-03-24T04:05:57.527Z,1025.29
2019-03-24T04:06:57.461Z,1025.33
2019-03-24T04:07:57.439Z,1025.32
2019-03-24T04:08:57.388Z,1025.33
2019-03-24T04:09:57.351Z,1025.31
2019-03-24T04:10:57.354Z,1025.29
2019-03-24T04:11:57.284Z,1025.29
2019-03-24T04:12:57.251Z,1025.29
2019-03-24T04:13:57.211Z,1025.30
2019-03-24T04:14:57.189Z,1025.24
2019-03-24T04:15:57.171Z,1025.24
2019-03-24T04:17:06.861Z,1025.24
2019-03-24T04:17:57.070Z,1025.21
2019-03-24T04:18:57.032Z,1025.24
2019-03-24T04:19:57.001Z,1025.25
2019-03-24T04:20:58.365Z,1025.21
2019-03-24T04:21:56.930Z,1025.26
2019-03-24T04:22:56.911Z,1025.25
2019-03-24T04:23:56.864Z,1025.25
2019-03-24T04:24:56.825Z,1025.21
2019-03-24T04:25:56.816Z,1025.23
2019-03-24T04:26:56.809Z,1025.24
2019-03-24T04:27:56.732Z,1025.24
2019-03-24T04:28:56.755Z,1025.24
2019-03-24T04:29:56.653Z,1025.25
2019-03-24T04:30:56.653Z,1025.26
2019-03-24T04:31:56.583Z,1025.26
2019-03-24T04:32:56.544Z,1025.23
2019-03-24T04:33:56.516Z,1025.25
2019-03-24T04:34:56.483Z,1025.24
2019-03-24T04:35:56.436Z,1025.23
2019-03-24T04:36:56.432Z,1025.24
2019-03-24T04:37:56.367Z,1025.27
2019-03-24T04:38:56.334Z,1025.27
2019-03-24T04:39:56.315Z,1025.26
2019-03-24T04:40:56.266Z,1025.29
2019-03-24T04:41:56.259Z,1025.31
2019-03-24T04:42:56.192Z,1025.30
2019-03-24T04:43:56.166Z,1025.32
2019-03-24T04:44:56.130Z,1025.33
2019-03-24T04:45:56.089Z,1025.31
2019-03-24T04:46:56.211Z,1025.27
2019-03-24T04:47:56.030Z,1025.29
2019-03-24T04:48:55.987Z,1025.27
2019-03-24T04:49:55.966Z,1025.25
2019-03-24T04:50:55.919Z,1025.26
2019-03-24T04:51:55.906Z,1025.24
2019-03-24T04:52:55.844Z,1025.25
2019-03-24T04:53:55.871Z,1025.24
2019-03-24T04:54:55.807Z,1025.25
2019-03-24T04:55:55.766Z,1025.24
2019-03-24T04:56:55.741Z,1025.21
2019-03-24T04:57:55.675Z,1025.19
2019-03-24T04:58:55.662Z,1025.18
2019-03-24T04:59:55.612Z,1025.16
2019-03-24T05:00:55.614Z,1025.16
2019-03-24T05:01:55.566Z,1025.15
2019-03-24T05:02:55.515Z,1025.14
2019-03-24T05:03:55.478Z,1025.12
2019-03-24T05:04:55.446Z,1025.10
2019-03-24T05:05:55.406Z,1025.07
2019-03-24T05:06:55.410Z,1025.12
2019-03-24T05:07:55.338Z,1025.14
2019-03-24T05:08:55.344Z,1025.15
2019-03-24T05:09:55.265Z,1025.17
2019-03-24T05:10:55.266Z,1025.14
2019-03-24T05:11:55.242Z,1025.16
2019-03-24T05:12:55.161Z,1025.17
2019-03-24T05:13:55.130Z,1025.17
2019-03-24T05:14:55.097Z,1025.18
2019-03-24T05:15:55.060Z,1025.18
2019-03-24T05:16:55.055Z,1025.17
2019-03-24T05:17:54.989Z,1025.14
2019-03-24T05:18:54.969Z,1025.15
2019-03-24T05:19:54.969Z,1025.13
2019-03-24T05:20:54.889Z,1025.11
2019-03-24T05:21:54.894Z,1025.08
2019-03-24T05:22:54.820Z,1025.09
2019-03-24T05:23:54.791Z,1025.05
2019-03-24T05:24:54.763Z,1025.05
2019-03-24T05:25:54.728Z,1025.06
2019-03-24T05:26:54.724Z,1025.05
2019-03-24T05:27:54.649Z,1025.02
2019-03-24T05:28:54.623Z,1025.03
2019-03-24T05:29:54.586Z,1025.03
2019-03-24T05:30:54.553Z,1025.03
2019-03-24T05:31:54.555Z,1025.06
2019-03-24T05:32:54.482Z,1025.04
2019-03-24T05:33:54.464Z,1025.03
2019-03-24T05:34:54.427Z,1025.02
2019-03-24T05:35:54.380Z,1025.06
2019-03-24T05:36:54.348Z,1025.07
2019-03-24T05:37:54.364Z,1025.08
2019-03-24T05:38:54.274Z,1025.06
2019-03-24T05:39:54.242Z,1025.07
2019-03-24T05:40:54.210Z,1025.09
2019-03-24T05:41:54.171Z,1025.06
2019-03-24T05:42:54.169Z,1025.01
2019-03-24T05:43:54.108Z,1025.03
2019-03-24T05:44:54.092Z,1025.04
2019-03-24T05:45:54.036Z,1025.05
2019-03-24T05:46:54.002Z,1025.04
2019-03-24T05:47:53.992Z,1025.05
2019-03-24T05:48:53.944Z,1025.07
2019-03-24T05:49:53.910Z,1025.05
2019-03-24T05:50:53.864Z,1025.09
2019-03-24T05:51:53.836Z,1025.06
2019-03-24T05:52:53.822Z,1025.05
2019-03-24T05:53:53.762Z,1025.03
2019-03-24T05:54:53.731Z,1025.04
2019-03-24T05:55:53.696Z,1025.05
2019-03-24T05:56:53.678Z,1025.05
2019-03-24T05:57:53.652Z,1025.01
2019-03-24T05:58:53.597Z,1025.00
2019-03-24T05:59:53.558Z,1025.00
2019-03-24T06:00:53.524Z,1024.99
2019-03-24T06:01:53.487Z,1025.05
2019-03-24T06:02:53.489Z,1025.03
2019-03-24T06:03:53.420Z,1025.05
2019-03-24T06:04:53.384Z,1025.03
2019-03-24T06:05:53.354Z,1025.07
2019-03-24T06:06:53.319Z,1025.03
2019-03-24T06:07:53.317Z,1025.00
2019-03-24T06:08:53.246Z,1025.03
2019-03-24T06:09:53.210Z,1025.01
2019-03-24T06:10:53.178Z,1024.99
2019-03-24T06:11:53.185Z,1025.02
2019-03-24T06:12:53.136Z,1024.98
2019-03-24T06:13:53.083Z,1024.97
2019-03-24T06:14:53.038Z,1024.97
2019-03-24T06:15:53.005Z,1024.98
2019-03-24T06:16:52.980Z,1024.99
2019-03-24T06:17:53.181Z,1025.00
2019-03-24T06:18:52.905Z,1024.98
2019-03-24T06:19:52.868Z,1025.00
2019-03-24T06:20:52.836Z,1024.99
2019-03-24T06:21:52.799Z,1024.95
2019-03-24T06:22:52.811Z,1024.94
2019-03-24T06:23:52.743Z,1024.94
2019-03-24T06:24:52.699Z,1024.96
2019-03-24T06:25:52.664Z,1024.96
2019-03-24T06:26:52.627Z,1024.90
2019-03-24T06:27:52.626Z,1024.89
2019-03-24T06:28:52.561Z,1024.92
2019-03-24T06:29:52.526Z,1024.90
2019-03-24T06:30:52.490Z,1024.94
2019-03-24T06:31:52.455Z,1024.92
2019-03-24T06:32:52.450Z,1024.96
2019-03-24T06:33:52.391Z,1024.91
2019-03-24T06:34:52.352Z,1024.90
2019-03-24T06:35:52.319Z,1024.91
2019-03-24T06:36:52.286Z,1024.93
2019-03-24T06:37:52.252Z,1024.95
2019-03-24T06:38:52.249Z,1024.97
2019-03-24T06:39:52.184Z,1024.93
2019-03-24T06:40:52.157Z,1024.94
2019-03-24T06:41:52.117Z,1024.97
2019-03-24T06:42:52.082Z,1024.96
2019-03-24T06:43:52.082Z,1024.96
2019-03-24T06:44:52.019Z,1024.99
2019-03-24T06:45:51.982Z,1025.01
2019-03-24T06:46:51.957Z,1024.96
2019-03-24T06:47:58.005Z,1024.98
2019-03-24T06:48:51.911Z,1024.97
2019-03-24T06:49:51.847Z,1024.99
2019-03-24T06:50:51.823Z,1024.95
2019-03-24T06:51:51.786Z,1024.95
2019-03-24T06:52:51.744Z,1024.90
2019-03-24T06:53:51.748Z,1024.94
2019-03-24T06:54:51.680Z,1024.90
2019-03-24T06:55:51.652Z,1024.92
2019-03-24T06:56:51.618Z,1024.90
2019-03-24T06:57:51.590Z,1024.93
2019-03-24T06:58:51.579Z,1024.89
2019-03-24T06:59:51.511Z,1024.88
2019-03-24T07:00:51.491Z,1024.89
2019-03-24T07:01:51.448Z,1024.91
2019-03-24T07:02:51.416Z,1024.92
2019-03-24T07:03:51.409Z,1024.92
2019-03-24T07:04:51.347Z,1024.86
2019-03-24T07:05:51.320Z,1024.90
2019-03-24T07:06:51.284Z,1024.84
2019-03-24T07:07:51.251Z,1024.86
2019-03-24T07:08:51.238Z,1024.85
2019-03-24T07:09:51.189Z,1024.81
2019-03-24T07:10:51.148Z,1024.78
2019-03-24T07:11:51.137Z,1024.84
2019-03-24T07:12:51.559Z,1024.80
2019-03-24T07:13:51.077Z,1024.85
2019-03-24T07:14:51.023Z,1024.84
2019-03-24T07:15:50.984Z,1024.83
2019-03-24T07:16:50.955Z,1024.82
2019-03-24T07:17:50.924Z,1024.81
2019-03-24T07:18:50.914Z,1024.84
2019-03-24T07:19:50.857Z,1024.83
2019-03-24T07:20:50.820Z,1024.83
2019-03-24T07:21:50.796Z,1024.84
2019-03-24T07:22:50.768Z,1024.87
2019-03-24T07:23:50.748Z,1024.85
2019-03-24T07:24:50.701Z,1024.85
2019-03-24T07:25:50.703Z,1024.86
2019-03-24T07:26:50.636Z,1024.88
2019-03-24T07:27:50.598Z,1024.89
2019-03-24T07:28:50.586Z,1024.89
2019-03-24T07:29:50.530Z,1024.91
2019-03-24T07:30:50.521Z,1024.92
2019-03-24T07:31:50.473Z,1024.87
2019-03-24T07:32:50.435Z,1024.87
2019-03-24T07:33:50.431Z,1024.86
2019-03-24T07:34:51.256Z,1024.81
2019-03-24T07:35:50.343Z,1024.85
2019-03-24T07:36:50.308Z,1024.86
2019-03-24T07:37:50.276Z,1024.85
2019-03-24T07:38:50.272Z,1024.84
2019-03-24T07:39:50.220Z,1024.87
2019-03-24T07:40:50.180Z,1024.85
2019-03-24T07:41:50.148Z,1024.79
2019-03-24T07:42:50.133Z,1024.83
2019-03-24T07:43:50.104Z,1024.83
2019-03-24T07:44:50.109Z,1024.89
2019-03-24T07:45:50.035Z,1024.83
2019-03-24T07:46:49.994Z,1024.82
2019-03-24T07:47:49.960Z,1024.82
2019-03-24T07:48:49.933Z,1024.82
2019-03-24T07:49:49.922Z,1024.84
2019-03-24T07:50:49.869Z,1024.83
2019-03-24T07:51:49.833Z,1024.85
2019-03-24T07:52:49.811Z,1024.82
2019-03-24T07:53:49.782Z,1024.78
2019-03-24T07:54:49.768Z,1024.76
2019-03-24T07:55:49.721Z,1024.75
2019-03-24T07:56:49.673Z,1024.69
2019-03-24T07:57:49.647Z,1024.69
2019-03-24T07:58:49.622Z,1024.69
2019-03-24T07:59:49.611Z,1024.68
2019-03-24T08:00:49.550Z,1024.65
2019-03-24T08:01:49.525Z,1024.68
2019-03-24T08:02:51.242Z,1024.65
2019-03-24T08:03:49.462Z,1024.61
2019-03-24T08:04:49.459Z,1024.64
2019-03-24T08:05:49.392Z,1024.63
2019-03-24T08:06:49.361Z,1024.66
2019-03-24T08:07:49.339Z,1024.69
2019-03-24T08:08:49.297Z,1024.65
2019-03-24T08:09:49.296Z,1024.64
2019-03-24T08:10:49.228Z,1024.62
2019-03-24T08:11:49.209Z,1024.62
2019-03-24T08:12:49.221Z,1024.59
2019-03-24T08:13:54.547Z,1024.58
2019-03-24T08:14:49.136Z,1024.62
2019-03-24T08:15:49.085Z,1024.61
2019-03-24T08:16:49.042Z,1024.63
2019-03-24T08:17:49.008Z,1024.65
2019-03-24T08:18:48.980Z,1024.58
2019-03-24T08:19:48.972Z,1024.60
2019-03-24T08:20:48.916Z,1024.61
2019-03-24T08:21:48.884Z,1024.65
2019-03-24T08:22:48.860Z,1024.59
2019-03-24T08:23:48.832Z,1024.57
2019-03-24T08:24:48.827Z,1024.61
2019-03-24T08:25:48.762Z,1024.60
2019-03-24T08:26:48.741Z,1024.57
2019-03-24T08:27:48.743Z,1024.66
2019-03-24T08:28:48.672Z,1024.53
2019-03-24T08:29:48.669Z,1024.50
2019-03-24T08:30:48.609Z,1024.50
2019-03-24T08:31:48.579Z,1024.48
2019-03-24T08:32:48.544Z,1024.43
2019-03-24T08:33:48.507Z,1024.46
2019-03-24T08:34:48.606Z,1024.45
2019-03-24T08:35:48.458Z,1024.39
2019-03-24T08:36:48.419Z,1024.42
2019-03-24T08:37:48.387Z,1024.45
2019-03-24T08:38:48.357Z,1024.38
2019-03-24T08:39:48.352Z,1024.37
2019-03-24T08:40:48.291Z,1024.35
2019-03-24T08:41:48.283Z,1024.32
2019-03-24T08:42:48.234Z,1024.25
2019-03-24T08:43:48.204Z,1024.24
2019-03-24T08:44:48.169Z,1024.20
2019-03-24T08:45:48.165Z,1024.20
2019-03-24T08:46:48.115Z,1024.22
2019-03-24T08:47:48.078Z,1024.15
2019-03-24T08:48:48.048Z,1024.13
2019-03-24T08:49:48.030Z,1024.11
2019-03-24T08:50:48.016Z,1024.11
2019-03-24T08:51:48.004Z,1024.07
2019-03-24T08:52:47.930Z,1024.10
2019-03-24T08:53:47.997Z,1024.12
2019-03-24T08:54:47.870Z,1024.06
2019-03-24T08:55:47.885Z,1024.06
2019-03-24T08:56:47.820Z,1024.09
2019-03-24T08:57:47.790Z,1024.07
2019-03-24T08:58:47.755Z,1024.04
2019-03-24T08:59:47.727Z,1024.02
2019-03-24T09:00:47.730Z,1024.01
2019-03-24T09:01:47.674Z,1023.96
2019-03-24T09:02:47.637Z,1023.96
2019-03-24T09:03:47.600Z,1023.93
2019-03-24T09:04:47.574Z,1023.93
2019-03-24T09:05:47.607Z,1023.87
2019-03-24T09:06:47.527Z,1023.91
2019-03-24T09:07:48.489Z,1023.87
2019-03-24T09:08:49.023Z,1023.83
2019-03-24T09:09:47.429Z,1023.75
2019-03-24T09:10:47.433Z,1023.77
2019-03-24T09:11:47.370Z,1023.74
2019-03-24T09:12:47.349Z,1023.79
2019-03-24T09:13:47.327Z,1023.75
2019-03-24T09:14:47.294Z,1023.74
2019-03-24T09:15:47.286Z,1023.75
2019-03-24T09:16:47.229Z,1023.74
2019-03-24T09:17:47.273Z,1023.70
2019-03-24T09:18:52.556Z,1023.66
2019-03-24T09:19:47.139Z,1023.67
2019-03-24T09:20:47.140Z,1023.69
2019-03-24T09:21:47.091Z,1023.67
2019-03-24T09:22:47.049Z,1023.70
2019-03-24T09:23:47.023Z,1023.68
2019-03-24T09:24:46.994Z,1023.69
2019-03-24T09:25:47.002Z,1023.64
2019-03-24T09:26:47.002Z,1023.63
2019-03-24T09:27:46.908Z,1023.59
2019-03-24T09:28:46.886Z,1023.56
2019-03-24T09:29:46.845Z,1023.53
2019-03-24T09:30:46.848Z,1023.54
2019-03-24T09:31:46.788Z,1023.53
2019-03-24T09:32:46.758Z,1023.55
2019-03-24T09:33:46.731Z,1023.52
2019-03-24T09:34:46.695Z,1023.55
2019-03-24T09:35:46.694Z,1023.52
2019-03-24T09:36:46.636Z,1023.56
2019-03-24T09:37:46.620Z,1023.54
2019-03-24T09:38:46.588Z,1023.53
2019-03-24T09:39:46.573Z,1023.53
2019-03-24T09:40:46.544Z,1023.52
2019-03-24T09:41:46.499Z,1023.50
2019-03-24T09:42:46.467Z,1023.46
2019-03-24T09:43:46.438Z,1023.47
2019-03-24T09:44:46.406Z,1023.43
2019-03-24T09:45:46.369Z,1023.45
2019-03-24T09:46:46.375Z,1023.45
2019-03-24T09:47:46.329Z,1023.43
2019-03-24T09:48:46.283Z,1023.45
2019-03-24T09:49:46.254Z,1023.46
2019-03-24T09:50:46.220Z,1023.47
2019-03-24T09:51:46.220Z,1023.41
2019-03-24T09:52:46.166Z,1023.42
2019-03-24T09:53:46.160Z,1023.45
2019-03-24T09:54:46.107Z,1023.43
2019-03-24T09:55:46.076Z,1023.40
2019-03-24T09:56:46.077Z,1023.39
2019-03-24T09:57:46.008Z,1023.42
2019-03-24T09:58:45.991Z,1023.36
2019-03-24T09:59:45.946Z,1023.35
2019-03-24T10:00:45.922Z,1023.34
2019-03-24T10:01:45.931Z,1023.33
2019-03-24T10:02:45.863Z,1023.31
2019-03-24T10:03:45.829Z,1023.31
2019-03-24T10:04:45.793Z,1023.36
2019-03-24T10:05:45.767Z,1023.33
2019-03-24T10:06:45.768Z,1023.35
2019-03-24T10:07:45.706Z,1023.31
2019-03-24T10:08:47.292Z,1023.29
2019-03-24T10:09:45.658Z,1023.33
2019-03-24T10:10:45.619Z,1023.31
2019-03-24T10:11:45.627Z,1023.31
2019-03-24T10:12:45.549Z,1023.30
2019-03-24T10:13:45.590Z,1023.33
2019-03-24T10:14:45.491Z,1023.30
2019-03-24T10:15:45.466Z,1023.28
2019-03-24T10:16:45.471Z,1023.24
2019-03-24T10:17:45.513Z,1023.20
2019-03-24T10:18:45.407Z,1023.21
2019-03-24T10:19:45.392Z,1023.11
2019-03-24T10:20:45.356Z,1023.15
2019-03-24T10:21:45.279Z,1023.06
2019-03-24T10:22:45.250Z,1023.04
2019-03-24T10:23:45.248Z,1023.03
2019-03-24T10:24:45.194Z,1023.01
2019-03-24T10:25:45.204Z,1023.00
2019-03-24T10:26:45.125Z,1022.96
2019-03-24T10:27:45.154Z,1022.96
2019-03-24T10:28:45.070Z,1022.94
2019-03-24T10:29:45.030Z,1022.95
2019-03-24T10:30:52.088Z,1022.94
2019-03-24T10:31:44.972Z,1022.98
2019-03-24T10:32:44.943Z,1022.95
2019-03-24T10:33:44.915Z,1022.96
2019-03-24T10:34:44.876Z,1022.94
2019-03-24T10:35:44.895Z,1022.91
2019-03-24T10:36:44.831Z,1022.93
2019-03-24T10:37:44.784Z,1022.97
2019-03-24T10:38:44.759Z,1023.00
2019-03-24T10:39:44.732Z,1022.99
2019-03-24T10:40:44.753Z,1022.94
2019-03-24T10:41:44.665Z,1022.98
2019-03-24T10:42:44.635Z,1022.97
2019-03-24T10:43:44.660Z,1022.96
2019-03-24T10:44:44.584Z,1022.91
2019-03-24T10:45:44.540Z,1022.90
2019-03-24T10:46:44.598Z,1022.83
2019-03-24T10:47:44.494Z,1022.82
2019-03-24T10:48:44.455Z,1022.80
2019-03-24T10:49:44.421Z,1022.74
2019-03-24T10:50:44.388Z,1022.71
2019-03-24T10:51:44.401Z,1022.67
2019-03-24T10:52:44.329Z,1022.68
2019-03-24T10:53:44.303Z,1022.64
2019-03-24T10:54:44.265Z,1022.62
2019-03-24T10:55:44.287Z,1022.63
2019-03-24T10:56:44.203Z,1022.57
2019-03-24T10:57:44.184Z,1022.55
2019-03-24T10:58:44.191Z,1022.56
2019-03-24T10:59:44.114Z,1022.53
2019-03-24T11:00:44.085Z,1022.56
2019-03-24T11:01:44.096Z,1022.54
2019-03-24T11:02:44.024Z,1022.49
2019-03-24T11:03:44.021Z,1022.49
2019-03-24T11:04:43.964Z,1022.45
2019-03-24T11:05:43.978Z,1022.42
2019-03-24T11:06:43.907Z,1022.43
2019-03-24T11:07:43.920Z,1022.36
2019-03-24T11:08:43.840Z,1022.36
2019-03-24T11:09:45.068Z,1022.32
2019-03-24T11:10:43.806Z,1022.32
2019-03-24T11:11:43.752Z,1022.30
2019-03-24T11:12:43.745Z,1022.32
2019-03-24T11:13:43.693Z,1022.28
2019-03-24T11:14:43.680Z,1022.27
2019-03-24T11:15:43.631Z,1022.26
2019-03-24T11:16:43.602Z,1022.20
2019-03-24T11:17:43.614Z,1022.22
2019-03-24T11:18:43.544Z,1022.16
2019-03-24T11:19:43.519Z,1022.18
2019-03-24T11:20:43.480Z,1022.21
2019-03-24T11:21:43.448Z,1022.16
2019-03-24T11:22:43.450Z,1022.20
2019-03-24T11:23:43.388Z,1022.23
2019-03-24T11:24:43.356Z,1022.16
2019-03-24T11:25:43.330Z,1022.16
2019-03-24T11:26:43.297Z,1022.15
2019-03-24T11:27:43.332Z,1022.08
2019-03-24T11:28:43.235Z,1022.11
2019-03-24T11:29:43.212Z,1022.08
2019-03-24T11:30:43.178Z,1022.11
2019-03-24T11:31:43.149Z,1022.16
2019-03-24T11:32:43.139Z,1022.13
2019-03-24T11:33:43.094Z,1022.09
2019-03-24T11:34:43.054Z,1022.09
2019-03-24T11:35:43.026Z,1022.05
2019-03-24T11:36:43.003Z,1022.09
2019-03-24T11:37:42.991Z,1022.06
2019-03-24T11:38:42.934Z,1022.09
2019-03-24T11:39:42.943Z,1022.04
2019-03-24T11:40:42.878Z,1022.07
2019-03-24T11:41:42.850Z,1022.11
2019-03-24T11:42:42.821Z,1022.14
2019-03-24T11:43:42.838Z,1022.11
2019-03-24T11:44:42.762Z,1022.10
2019-03-24T11:45:42.809Z,1022.13
2019-03-24T11:46:42.707Z,1022.13
2019-03-24T11:47:42.669Z,1022.07
2019-03-24T11:48:42.665Z,1021.99
2019-03-24T11:49:46.182Z,1022.01
2019-03-24T11:50:42.597Z,1021.96
2019-03-24T11:51:42.554Z,1022.00
2019-03-24T11:52:42.529Z,1021.98
2019-03-24T11:53:42.521Z,1021.92
2019-03-24T11:54:42.467Z,1021.95
2019-03-24T11:55:42.574Z,1021.89
2019-03-24T11:56:42.412Z,1021.84
2019-03-24T11:57:42.384Z,1021.79
2019-03-24T11:58:42.506Z,1021.79
2019-03-24T11:59:42.328Z,1021.78
2019-03-24T12:00:42.294Z,1021.76
2019-03-24T12:01:42.274Z,1021.78
2019-03-24T12:02:42.246Z,1021.79
2019-03-24T12:03:42.239Z,1021.69
2019-03-24T12:04:42.187Z,1021.66